Time;durP1;ratioP1;P1;durP2;ratioP2;P2;SDS_P1;SDS_P2;PMS_P1;PMS_P2;Temp;Humidity;BMP_temperature;BMP_pressure;BME280_temperature;BME280_humidity;BME280_pressure;Samples;Min_cycle;Max_cycle;Signal;HPM_P1;HPM_P2
2022/07/04 03:34:12;;;;;;;2.83;0.90;;;19.80;65.90;;;;;;4817788;24;20059;-73
2022/07/04 03:36:38;;;;;;;1.70;0.60;;;19.80;66.30;;;;;;4774806;30;20471;-72
2022/07/04 03:39:04;;;;;;;2.80;0.88;;;19.90;66.40;;;;;;4792456;30;20083;-73
2022/07/04 03:41:29;;;;;;;2.72;0.73;;;19.90;66.10;;;;;;4784645;30;20059;-75
2022/07/04 03:43:55;;;;;;;3.45;0.85;;;20.00;65.90;;;;;;4774331;30;20048;-77
2022/07/04 03:46:21;;;;;;;1.50;0.82;;;20.00;65.70;;;;;;4788175;30;20144;-77
2022/07/04 03:48:46;;;;;;;4.07;0.98;;;20.00;65.50;;;;;;4773952;30;20055;-76
2022/07/04 03:51:13;;;;;;;4.00;1.35;;;20.00;65.40;;;;;;4774230;30;20051;-77
2022/07/04 03:53:39;;;;;;;3.38;1.15;;;20.00;65.40;;;;;;4780881;30;20104;-78
2022/07/04 03:56:04;;;;;;;4.25;1.00;;;20.00;65.30;;;;;;4791856;30;20444;-77
2022/07/04 03:58:30;;;;;;;2.88;1.20;;;20.00;65.30;;;;;;4791633;30;20043;-76
2022/07/04 04:00:59;;;;;;;3.30;1.10;;;20.00;65.20;;;;;;4791264;30;20430;-82
2022/07/04 04:06:08;;;;;;;4.40;1.08;;;20.00;65.20;;;;;;4791762;30;20055;-77
2022/07/04 04:08:34;;;;;;;8.07;0.93;;;20.00;65.20;;;;;;4781541;30;20063;-77
2022/07/04 04:11:00;;;;;;;4.60;1.05;;;20.00;65.20;;;;;;4772625;30;20051;-76
2022/07/04 04:13:26;;;;;;;4.38;1.30;;;20.00;65.20;;;;;;4773753;30;20159;-76
2022/07/04 04:15:51;;;;;;;4.22;1.00;;;20.00;65.20;;;;;;4757716;30;20056;-81
2022/07/04 04:18:17;;;;;;;7.65;1.55;;;20.00;65.30;;;;;;4772783;30;20368;-83
2022/07/04 04:20:43;;;;;;;3.05;1.05;;;20.00;65.30;;;;;;4782900;30;20054;-80
2022/07/04 04:23:10;;;;;;;8.60;1.63;;;20.00;65.40;;;;;;4775128;30;20500;-81
2022/07/04 04:25:35;;;;;;;3.65;1.40;;;20.00;65.40;;;;;;4789452;30;20055;-75
2022/07/04 04:28:01;;;;;;;3.72;1.10;;;20.00;66.10;;;;;;4755296;30;20131;-81
2022/07/04 04:30:27;;;;;;;4.32;1.58;;;20.00;65.30;;;;;;4755413;30;20056;-79
2022/07/04 04:32:53;;;;;;;5.53;1.60;;;20.00;65.20;;;;;;4762486;30;20048;-78
2022/07/04 04:35:21;;;;;;;3.15;1.25;;;20.00;65.50;;;;;;4772543;30;20063;-79
2022/07/04 04:37:47;;;;;;;2.55;1.08;;;19.90;65.40;;;;;;4742395;30;20455;-79
2022/07/04 04:40:14;;;;;;;4.00;0.90;;;20.00;65.50;;;;;;4757386;30;20129;-78
2022/07/04 04:42:40;;;;;;;2.97;1.00;;;19.90;65.40;;;;;;4772860;30;20081;-76
2022/07/04 04:45:06;;;;;;;3.47;1.10;;;19.90;65.50;;;;;;4773080;30;20063;-77
2022/07/04 04:47:32;;;;;;;6.03;1.25;;;19.90;65.60;;;;;;4773007;30;20064;-79
2022/07/04 04:49:58;;;;;;;5.85;1.25;;;19.90;65.70;;;;;;4773099;30;20067;-78
2022/07/04 04:52:23;;;;;;;2.53;1.10;;;19.90;65.80;;;;;;4773928;30;20044;-78
2022/07/04 04:54:49;;;;;;;3.80;1.30;;;19.90;65.70;;;;;;4772730;30;20447;-77
2022/07/04 04:57:15;;;;;;;5.32;1.20;;;19.90;65.60;;;;;;4757737;30;20044;-77
2022/07/04 04:59:40;;;;;;;4.72;1.10;;;19.80;65.60;;;;;;4773943;30;20440;-77
2022/07/04 05:02:06;;;;;;;4.65;0.77;;;19.80;65.70;;;;;;4790324;30;20059;-77
2022/07/04 05:04:32;;;;;;;3.13;0.88;;;19.90;65.80;;;;;;4791143;30;20368;-76
2022/07/04 05:06:58;;;;;;;5.68;1.10;;;19.90;65.90;;;;;;4790717;30;20147;-73
2022/07/04 05:09:23;;;;;;;3.95;0.70;;;19.90;65.90;;;;;;4790557;30;20051;-77
2022/07/04 05:11:49;;;;;;;10.30;1.27;;;19.90;66.50;;;;;;4773705;30;20055;-78
2022/07/04 05:14:15;;;;;;;8.27;1.45;;;19.90;66.00;;;;;;4772581;30;20047;-76
2022/07/04 05:16:41;;;;;;;7.45;1.17;;;20.00;66.00;;;;;;4757653;30;20134;-75
2022/07/04 05:19:07;;;;;;;6.68;1.23;;;19.90;65.90;;;;;;4754203;30;20219;-75
2022/07/04 05:21:33;;;;;;;2.50;0.77;;;20.00;66.00;;;;;;4761497;30;20059;-77
2022/07/04 05:23:59;;;;;;;5.43;1.52;;;20.00;66.10;;;;;;4786319;30;20086;-77
2022/07/04 05:26:25;;;;;;;4.90;1.10;;;20.00;66.10;;;;;;4757505;30;20123;-77
2022/07/04 05:28:51;;;;;;;7.13;1.23;;;20.00;66.00;;;;;;4772006;30;20059;-78
2022/07/04 05:31:17;;;;;;;10.02;1.75;;;20.10;66.00;;;;;;4786419;30;20051;-76
2022/07/04 05:33:43;;;;;;;2.17;1.20;;;20.00;65.90;;;;;;4772186;30;20087;-77
2022/07/04 05:36:09;;;;;;;7.85;1.63;;;20.00;65.90;;;;;;4772157;30;20415;-78
2022/07/04 05:38:34;;;;;;;2.83;1.15;;;20.00;65.90;;;;;;4772145;30;20058;-76
2022/07/04 05:41:01;;;;;;;9.50;1.08;;;20.00;65.90;;;;;;4756188;30;20056;-77
2022/07/04 05:43:27;;;;;;;5.25;0.90;;;20.10;66.30;;;;;;4771835;30;20056;-75
2022/07/04 05:45:53;;;;;;;6.05;1.17;;;20.10;66.50;;;;;;4771966;30;20088;-77
2022/07/04 05:48:19;;;;;;;11.77;2.03;;;20.10;66.60;;;;;;4755547;30;20116;-77
2022/07/04 05:50:45;;;;;;;7.75;1.10;;;20.20;66.80;;;;;;4768625;30;20043;-79
2022/07/04 05:53:11;;;;;;;3.63;1.25;;;20.20;66.70;;;;;;4755192;30;20044;-76
2022/07/04 05:55:36;;;;;;;8.52;1.45;;;20.20;66.60;;;;;;4771433;30;20040;-76
2022/07/04 05:58:02;;;;;;;5.72;1.60;;;20.30;67.10;;;;;;4771476;30;20056;-77
2022/07/04 06:00:28;;;;;;;16.73;1.85;;;20.20;67.20;;;;;;4771970;30;20048;-75
2022/07/04 06:02:54;;;;;;;11.02;1.42;;;20.30;67.20;;;;;;4785811;30;20071;-76
2022/07/04 06:05:20;;;;;;;10.07;1.40;;;20.30;67.20;;;;;;4771820;30;20175;-76
2022/07/04 06:07:48;;;;;;;13.30;1.70;;;20.30;67.30;;;;;;4741743;30;20122;-71
2022/07/04 06:10:14;;;;;;;8.20;2.00;;;20.30;67.40;;;;;;4771788;30;20135;-76
2022/07/04 06:12:40;;;;;;;7.22;1.52;;;20.30;67.50;;;;;;4755354;30;20066;-77
2022/07/04 06:15:06;;;;;;;10.98;1.70;;;20.30;67.50;;;;;;4772046;30;20152;-75
2022/07/04 06:17:32;;;;;;;10.63;1.50;;;20.30;67.40;;;;;;4772105;30;20130;-76
2022/07/04 06:19:58;;;;;;;6.38;1.40;;;20.30;67.40;;;;;;4785975;30;20134;-76
2022/07/04 06:22:23;;;;;;;4.68;1.60;;;20.30;67.30;;;;;;4771658;30;20064;-76
2022/07/04 06:24:49;;;;;;;4.10;1.35;;;20.30;67.20;;;;;;4771663;30;20141;-76
2022/07/04 06:27:15;;;;;;;6.35;1.80;;;20.30;67.10;;;;;;4772019;30;20070;-76
2022/07/04 06:29:41;;;;;;;5.55;1.63;;;20.20;67.10;;;;;;4771959;30;20472;-76
2022/07/04 06:32:07;;;;;;;3.60;1.10;;;20.20;67.50;;;;;;4771300;30;20048;-79
2022/07/04 06:37:17;;;;;;;2.17;0.80;;;20.10;67.60;;;;;;4771566;30;20059;-75
2022/07/04 06:39:43;;;;;;;3.10;0.90;;;20.10;67.40;;;;;;4771457;30;20059;-79
2022/07/04 06:42:09;;;;;;;7.03;1.25;;;20.10;67.30;;;;;;4785708;30;20051;-78
2022/07/04 06:44:34;;;;;;;5.28;0.85;;;20.10;67.20;;;;;;4771782;30;20116;-82
2022/07/04 06:47:00;;;;;;;3.80;1.50;;;20.10;67.10;;;;;;4771567;30;20453;-75
2022/07/04 06:49:26;;;;;;;9.10;1.38;;;20.10;66.90;;;;;;4771572;30;20048;-78
2022/07/04 06:51:51;;;;;;;5.57;0.85;;;20.10;67.30;;;;;;4770519;30;20059;-76
2022/07/04 06:54:17;;;;;;;3.80;0.80;;;20.10;67.30;;;;;;4774318;30;20201;-78
2022/07/04 06:56:43;;;;;;;3.03;0.77;;;20.00;66.80;;;;;;4775135;30;20082;-79
2022/07/04 06:59:09;;;;;;;4.30;0.90;;;20.00;66.70;;;;;;4759253;30;20062;-77
2022/07/04 07:01:35;;;;;;;3.65;0.70;;;20.00;66.80;;;;;;4774546;30;20050;-77
2022/07/04 07:04:01;;;;;;;3.08;0.50;;;20.00;66.60;;;;;;4743984;30;20044;-78
2022/07/04 07:06:26;;;;;;;2.15;0.70;;;20.00;66.40;;;;;;4774723;30;20063;-77
2022/07/04 07:08:52;;;;;;;5.75;0.80;;;20.00;66.20;;;;;;4774714;30;20063;-76
2022/07/04 07:11:19;;;;;;;1.67;0.50;;;19.90;66.30;;;;;;4774413;30;20051;-76
2022/07/04 07:13:48;;;;;;;2.28;0.55;;;19.90;66.50;;;;;;4774524;30;20048;-76
2022/07/04 07:16:14;;;;;;;3.65;0.98;;;19.90;66.50;;;;;;4775008;30;20134;-78
2022/07/04 07:18:40;;;;;;;1.90;0.50;;;20.00;66.60;;;;;;4774696;30;20055;-77
2022/07/04 07:21:06;;;;;;;3.97;0.50;;;20.00;66.50;;;;;;4774400;30;20146;-76
2022/07/04 07:23:31;;;;;;;1.85;0.55;;;20.10;66.60;;;;;;4773769;30;20048;-76
2022/07/04 07:25:57;;;;;;;2.97;0.60;;;20.10;66.40;;;;;;4774143;30;20078;-77
2022/07/04 07:28:23;;;;;;;0.93;0.32;;;20.20;66.30;;;;;;4758678;30;20056;-77
2022/07/04 07:30:49;;;;;;;2.78;0.63;;;20.20;66.40;;;;;;4774203;30;20102;-76
2022/07/04 07:33:14;;;;;;;2.13;0.60;;;20.30;66.30;;;;;;4773994;30;20440;-78
2022/07/04 07:35:40;;;;;;;1.20;0.47;;;20.30;66.10;;;;;;4773864;30;20128;-76
2022/07/04 07:38:06;;;;;;;3.78;0.50;;;20.40;66.20;;;;;;4774453;30;20059;-77
2022/07/04 07:40:33;;;;;;;3.67;0.43;;;20.40;66.10;;;;;;4758595;30;20056;-77
2022/07/04 07:42:59;;;;;;;1.33;0.50;;;20.40;65.90;;;;;;4773742;30;20059;-76
2022/07/04 07:45:25;;;;;;;1.80;0.22;;;20.40;65.80;;;;;;4774401;30;20066;-76
2022/07/04 07:47:51;;;;;;;2.53;0.40;;;20.40;65.80;;;;;;4774078;30;20169;-78
2022/07/04 07:50:16;;;;;;;1.38;0.60;;;20.50;65.70;;;;;;4773897;30;20056;-77
2022/07/04 07:52:42;;;;;;;2.67;0.70;;;20.50;65.70;;;;;;4773390;30;20044;-75
2022/07/04 07:55:08;;;;;;;5.43;0.63;;;20.50;65.60;;;;;;4772397;30;20109;-75
2022/07/04 07:57:33;;;;;;;0.98;0.40;;;20.50;65.70;;;;;;4773917;30;20056;-78
2022/07/04 07:59:59;;;;;;;4.22;0.55;;;20.60;65.90;;;;;;4773599;30;20102;-74
2022/07/04 08:05:10;;;;;;;3.15;0.70;;;20.60;65.90;;;;;;4771757;30;20126;-74
2022/07/04 08:07:38;;;;;;;11.27;1.60;;;20.60;65.70;;;;;;4773472;30;20442;-75
2022/07/04 08:10:05;;;;;;;2.90;0.93;;;20.60;65.50;;;;;;4777543;30;20052;-74
2022/07/04 08:12:31;;;;;;;3.72;0.68;;;20.60;65.10;;;;;;4773514;30;20051;-75
2022/07/04 08:14:57;;;;;;;4.82;0.52;;;20.50;64.60;;;;;;4773247;30;20047;-74
2022/07/04 08:17:22;;;;;;;3.08;1.02;;;20.50;64.60;;;;;;4773423;30;20055;-75
2022/07/04 08:19:48;;;;;;;3.55;0.60;;;20.50;64.80;;;;;;4772810;30;20056;-75
2022/07/04 08:22:14;;;;;;;3.75;0.70;;;20.50;64.90;;;;;;4773251;30;20126;-75
2022/07/04 08:24:39;;;;;;;3.67;0.68;;;20.40;65.00;;;;;;4773296;30;20356;-76
2022/07/04 08:27:05;;;;;;;3.00;0.65;;;20.50;65.00;;;;;;4773349;30;20060;-75
2022/07/04 08:29:32;;;;;;;3.67;0.70;;;20.50;65.00;;;;;;4771845;30;20095;-75
2022/07/04 08:31:58;;;;;;;9.13;1.00;;;20.50;65.10;;;;;;4773328;30;20134;-75
2022/07/04 08:34:24;;;;;;;3.25;0.80;;;20.50;65.00;;;;;;4772637;30;20106;-74
2022/07/04 08:36:49;;;;;;;3.05;0.85;;;20.50;65.10;;;;;;4773040;30;20051;-74
2022/07/04 08:39:16;;;;;;;2.38;0.60;;;20.50;65.10;;;;;;4773038;30;20035;-74
2022/07/04 08:41:43;;;;;;;3.90;0.60;;;20.50;65.20;;;;;;4772354;30;20087;-75
2022/07/04 08:44:11;;;;;;;2.25;0.70;;;20.60;65.20;;;;;;4773195;30;20055;-74
2022/07/04 08:46:41;;;;;;;7.68;1.30;;;20.60;65.20;;;;;;4773241;30;20142;-74
2022/07/04 08:49:33;;;;;;;3.95;0.93;;;20.60;65.50;;;;;;4772011;30;20055;-75
2022/07/04 08:52:05;;;;;;;3.08;0.70;;;20.60;65.60;;;;;;4769413;30;20059;-76
2022/07/04 09:00:04;;;;;;;4.93;0.80;;;20.70;65.60;;;;;;4772556;30;20063;-75
2022/07/04 09:02:30;;;;;;;5.30;0.98;;;20.70;65.60;;;;;;4771881;30;20424;-76
2022/07/04 09:04:56;;;;;;;3.50;0.70;;;20.70;65.50;;;;;;4771709;30;20062;-76
2022/07/04 09:07:22;;;;;;;3.03;0.82;;;20.80;65.50;;;;;;4769278;30;20047;-76
2022/07/04 09:09:49;;;;;;;3.53;0.60;;;20.80;65.20;;;;;;4771292;30;20163;-75
2022/07/04 09:12:14;;;;;;;4.20;1.30;;;20.80;65.10;;;;;;4765545;30;20078;-79
2022/07/04 09:14:41;;;;;;;6.25;0.70;;;20.80;65.10;;;;;;4772291;30;20059;-75
2022/07/04 09:17:08;;;;;;;2.28;0.57;;;20.80;64.90;;;;;;4771967;30;20056;-75
2022/07/04 09:19:33;;;;;;;4.05;1.30;;;20.80;65.30;;;;;;4772172;30;20460;-75
2022/07/04 09:22:09;;;;;;;2.63;0.57;;;20.80;65.40;;;;;;4772223;30;20134;-75
2022/07/04 09:24:45;;;;;;;2.40;0.70;;;20.80;66.10;;;;;;4772772;30;20091;-74
2022/07/04 09:27:11;;;;;;;4.72;0.52;;;20.80;65.70;;;;;;4772198;30;20051;-75
2022/07/04 09:29:53;;;;;;;4.65;1.00;;;20.80;65.60;;;;;;4756946;30;20059;-76
2022/07/04 09:32:46;;;;;;;2.10;0.60;;;20.90;65.40;;;;;;4754442;30;20052;-78
2022/07/04 09:35:21;;;;;;;2.30;0.95;;;20.90;65.10;;;;;;4758963;30;20055;-79
2022/07/04 09:37:51;;;;;;;2.42;0.70;;;20.90;65.00;;;;;;4756605;30;20147;-78
2022/07/04 09:40:32;;;;;;;2.67;0.70;;;20.90;64.90;;;;;;4772029;30;20048;-75
2022/07/04 09:43:00;;;;;;;3.25;0.80;;;20.90;64.80;;;;;;4772120;30;20406;-75
2022/07/04 09:45:27;;;;;;;3.58;1.08;;;20.90;65.00;;;;;;4772286;30;20136;-75
2022/07/04 09:47:58;;;;;;;2.47;0.80;;;20.90;65.20;;;;;;4771917;30;20052;-75
2022/07/04 09:50:26;;;;;;;1.33;0.70;;;20.90;65.30;;;;;;4771721;30;20052;-75
2022/07/04 09:52:53;;;;;;;3.28;0.90;;;20.90;65.40;;;;;;4772772;30;20052;-75
2022/07/04 09:55:28;;;;;;;2.17;0.60;;;20.90;65.50;;;;;;4772719;30;20072;-75
2022/07/04 09:57:56;;;;;;;2.72;0.70;;;21.00;65.60;;;;;;4771822;30;20089;-75
2022/07/04 10:00:30;;;;;;;1.63;0.85;;;21.00;65.60;;;;;;4772031;30;20091;-75
2022/07/04 10:03:14;;;;;;;4.68;0.90;;;21.00;65.50;;;;;;4771372;30;20371;-75
2022/07/04 10:05:40;;;;;;;4.32;0.60;;;21.00;65.40;;;;;;4772258;30;20047;-75
2022/07/04 10:08:06;;;;;;;6.15;1.02;;;21.00;65.20;;;;;;4772239;30;20491;-75
2022/07/04 10:10:34;;;;;;;2.63;0.63;;;21.10;65.10;;;;;;4772431;30;20075;-75
2022/07/04 10:13:05;;;;;;;1.33;0.47;;;21.10;65.20;;;;;;4771882;30;20066;-74
2022/07/04 10:15:33;;;;;;;3.50;0.57;;;21.10;65.20;;;;;;4772097;30;20121;-75
2022/07/04 10:17:59;;;;;;;2.35;0.50;;;21.10;64.90;;;;;;4772594;30;20055;-75
2022/07/04 10:20:25;;;;;;;2.55;0.63;;;21.10;64.80;;;;;;4756559;30;20056;-75
2022/07/04 10:22:51;;;;;;;2.42;0.70;;;21.10;64.70;;;;;;4771137;30;20059;-76
2022/07/04 10:25:17;;;;;;;2.13;0.73;;;21.10;64.30;;;;;;4771466;30;20543;-76
2022/07/04 10:27:44;;;;;;;2.42;0.65;;;21.10;63.30;;;;;;4772150;30;20138;-76
2022/07/04 10:30:14;;;;;;;4.85;0.80;;;21.10;62.10;;;;;;4775181;30;20055;-77
2022/07/04 10:32:43;;;;;;;3.22;0.98;;;21.10;61.40;;;;;;4775059;30;20153;-79
2022/07/04 10:35:11;;;;;;;6.03;1.25;;;21.10;60.10;;;;;;4785813;30;20060;-77
2022/07/04 10:38:02;;;;;;;3.30;0.68;;;21.10;60.00;;;;;;4757186;30;20063;-78
2022/07/04 10:40:42;;;;;;;4.47;1.30;;;21.10;60.00;;;;;;4757983;30;20604;-74
2022/07/04 10:43:33;;;;;;;4.40;0.70;;;21.10;58.40;;;;;;4755864;30;20044;-77
2022/07/04 10:46:05;;;;;;;2.22;0.85;;;21.10;59.00;;;;;;4756861;30;20057;-74
2022/07/04 10:48:32;;;;;;;5.50;0.65;;;21.10;59.70;;;;;;4757138;30;20056;-73
2022/07/04 10:51:07;;;;;;;4.15;0.90;;;21.00;60.20;;;;;;4756856;30;20052;-75
2022/07/04 10:54:04;;;;;;;2.53;0.65;;;21.00;60.30;;;;;;4755432;30;20063;-74
2022/07/04 10:56:29;;;;;;;2.95;0.75;;;21.00;60.60;;;;;;4757216;30;20127;-74
2022/07/04 10:58:58;;;;;;;3.47;0.82;;;21.00;61.10;;;;;;4756809;30;20103;-75
2022/07/04 11:01:25;;;;;;;2.72;0.52;;;21.10;61.50;;;;;;4756747;30;20056;-74
2022/07/04 11:03:53;;;;;;;4.50;0.80;;;21.10;61.40;;;;;;4756477;30;20052;-74
2022/07/04 11:06:35;;;;;;;5.18;0.50;;;21.10;61.70;;;;;;4756950;30;20052;-75
2022/07/04 11:09:14;;;;;;;3.65;0.70;;;21.10;61.20;;;;;;4756495;30;20144;-75
2022/07/04 11:11:59;;;;;;;2.72;0.75;;;21.20;61.30;;;;;;4756506;30;20079;-74
2022/07/04 11:14:44;;;;;;;5.63;1.17;;;21.20;62.10;;;;;;4737947;30;20135;-74
2022/07/04 11:17:10;;;;;;;3.80;0.60;;;21.20;61.10;;;;;;4738512;30;20055;-74
2022/07/04 11:19:36;;;;;;;3.70;1.05;;;21.20;61.90;;;;;;4738783;30;20060;-74
2022/07/04 11:22:05;;;;;;;7.28;1.33;;;21.20;61.70;;;;;;4753104;30;20365;-76
2022/07/04 11:24:31;;;;;;;5.00;0.80;;;21.20;61.30;;;;;;4751672;30;20108;-76
2022/07/04 11:26:57;;;;;;;3.08;0.50;;;21.20;61.00;;;;;;4755216;30;20453;-75
2022/07/04 11:29:24;;;;;;;3.53;1.08;;;21.20;61.90;;;;;;4756481;30;20067;-76
2022/07/04 11:31:52;;;;;;;3.58;0.50;;;21.20;61.60;;;;;;4755181;30;20090;-76
2022/07/04 11:34:19;;;;;;;4.25;0.80;;;21.20;61.30;;;;;;4762822;30;20067;-74
2022/07/04 11:36:47;;;;;;;2.13;0.52;;;21.20;61.30;;;;;;4758022;30;20051;-75
2022/07/04 11:39:20;;;;;;;3.30;0.80;;;21.20;61.80;;;;;;4773143;30;20125;-75
2022/07/04 11:47:41;;;;;;;8.98;0.85;;;21.20;57.70;;;;;;4736163;30;20064;-77
2022/07/04 11:50:10;;;;;;;3.10;0.63;;;21.10;59.30;;;;;;4766350;30;20366;-75
2022/07/04 11:52:48;;;;;;;3.20;0.80;;;21.10;59.90;;;;;;4773800;30;20376;-76
2022/07/04 11:55:16;;;;;;;1.17;0.60;;;21.10;60.20;;;;;;4757713;30;20150;-75
2022/07/04 11:57:46;;;;;;;2.30;0.57;;;21.20;60.40;;;;;;4787470;30;20055;-75
2022/07/04 12:00:18;;;;;;;5.00;0.70;;;21.10;60.50;;;;;;4772537;30;20314;-75
2022/07/04 12:02:45;;;;;;;3.13;0.90;;;21.20;60.20;;;;;;4772965;30;20087;-74
2022/07/04 12:05:12;;;;;;;1.08;0.45;;;21.20;60.40;;;;;;4773735;30;20055;-74
2022/07/04 12:07:43;;;;;;;2.15;0.40;;;21.20;60.60;;;;;;4773727;30;20062;-75
2022/07/04 12:10:11;;;;;;;2.10;0.63;;;21.20;60.70;;;;;;4774175;30;20059;-75
2022/07/04 12:12:54;;;;;;;1.48;0.47;;;21.20;60.90;;;;;;4773657;30;20059;-74
2022/07/04 12:15:21;;;;;;;2.10;0.53;;;21.20;61.10;;;;;;4772893;30;20060;-75
2022/07/04 12:17:54;;;;;;;1.98;0.47;;;21.20;61.10;;;;;;4773307;30;20052;-74
2022/07/04 12:20:23;;;;;;;4.20;0.57;;;21.20;61.00;;;;;;4773720;30;20056;-74
2022/07/04 12:22:58;;;;;;;3.25;0.60;;;21.20;61.90;;;;;;4773296;30;20442;-74
2022/07/04 12:25:24;;;;;;;3.47;0.50;;;21.20;61.20;;;;;;4773549;30;20062;-74
2022/07/04 12:27:58;;;;;;;3.95;0.50;;;21.30;61.20;;;;;;4757834;30;20056;-76
2022/07/04 12:30:26;;;;;;;7.80;0.93;;;21.30;61.40;;;;;;4773447;30;20052;-77
2022/07/04 12:32:56;;;;;;;4.40;0.60;;;21.30;60.90;;;;;;4772399;30;20052;-73
2022/07/04 12:35:59;;;;;;;4.30;0.75;;;21.30;61.10;;;;;;4776277;30;20067;-73
2022/07/04 12:38:27;;;;;;;7.57;0.77;;;21.30;61.30;;;;;;4764305;30;20461;-77
2022/07/04 12:41:07;;;;;;;12.77;1.30;;;21.30;61.50;;;;;;4769049;30;20091;-73
2022/07/04 12:43:42;;;;;;;14.25;1.45;;;21.30;61.20;;;;;;4772506;30;20057;-73
2022/07/04 12:46:10;;;;;;;11.63;1.35;;;21.30;61.30;;;;;;4772917;30;20056;-72
2022/07/04 12:48:37;;;;;;;9.05;1.48;;;21.30;61.30;;;;;;4772570;30;20143;-72
2022/07/04 12:51:15;;;;;;;11.02;1.25;;;21.20;61.50;;;;;;4773145;30;20138;-73
2022/07/04 12:53:44;;;;;;;16.38;1.50;;;21.30;59.80;;;;;;4755098;30;20475;-73
2022/07/04 12:56:31;;;;;;;10.63;1.55;;;21.30;60.40;;;;;;4754789;30;20051;-73
2022/07/04 12:58:58;;;;;;;11.73;1.30;;;21.30;60.50;;;;;;4754904;30;20056;-74
2022/07/04 13:01:24;;;;;;;6.55;1.10;;;21.20;60.70;;;;;;4754914;30;20522;-74
2022/07/04 13:03:51;;;;;;;6.72;0.90;;;21.30;61.10;;;;;;4754687;30;20460;-75
2022/07/04 13:06:17;;;;;;;11.75;1.58;;;21.30;61.30;;;;;;4755059;30;20044;-73
2022/07/04 13:08:43;;;;;;;7.85;1.15;;;21.30;61.50;;;;;;4755094;30;20056;-74
2022/07/04 13:13:54;;;;;;;16.67;2.80;;;21.30;62.00;;;;;;4739665;30;20064;-74
2022/07/04 13:16:20;;;;;;;8.20;1.85;;;21.30;62.20;;;;;;4754442;30;20101;-74
2022/07/04 13:18:46;;;;;;;10.65;1.40;;;21.40;62.20;;;;;;4754689;30;20064;-77
2022/07/04 13:21:12;;;;;;;4.63;0.47;;;21.40;61.70;;;;;;4754902;30;20060;-77
2022/07/04 13:23:38;;;;;;;4.25;0.70;;;21.40;59.50;;;;;;4754580;30;20128;-77
2022/07/04 13:26:04;;;;;;;4.63;0.38;;;21.30;58.50;;;;;;4763269;30;20052;-76
2022/07/04 13:28:29;;;;;;;1.95;0.57;;;21.30;58.00;;;;;;4772332;30;20058;-77
2022/07/04 13:30:56;;;;;;;4.60;0.52;;;21.30;57.10;;;;;;4757237;30;20055;-82
2022/07/04 13:33:21;;;;;;;4.38;0.52;;;21.30;55.90;;;;;;4772510;30;20056;-84
2022/07/04 13:35:47;;;;;;;3.13;0.52;;;21.30;56.10;;;;;;4741757;30;20578;-78
2022/07/04 13:38:14;;;;;;;4.57;0.52;;;21.20;56.00;;;;;;4771122;30;20475;-81
2022/07/04 13:40:43;;;;;;;5.15;0.47;;;21.20;56.00;;;;;;4770983;30;20127;-75
2022/07/04 13:43:10;;;;;;;4.13;0.50;;;21.20;55.80;;;;;;4772242;30;20067;-78
2022/07/04 13:45:38;;;;;;;4.45;1.17;;;21.20;56.20;;;;;;4772091;30;20066;-77
2022/07/04 13:48:04;;;;;;;27.30;15.85;;;21.20;56.40;;;;;;4771857;30;20055;-76
2022/07/04 13:50:29;;;;;;;10.60;3.72;;;21.20;57.50;;;;;;4772217;30;20372;-81
2022/07/04 13:52:55;;;;;;;8.57;2.40;;;21.30;57.20;;;;;;4771956;30;20044;-77
2022/07/04 13:55:22;;;;;;;7.97;2.90;;;21.30;57.30;;;;;;4771982;30;20055;-76
2022/07/04 13:57:47;;;;;;;7.05;2.80;;;21.30;57.90;;;;;;4771613;30;20050;-76
2022/07/04 14:00:13;;;;;;;6.85;3.40;;;21.30;58.70;;;;;;4772255;30;20131;-75
2022/07/04 14:02:39;;;;;;;10.23;4.15;;;21.30;58.50;;;;;;4773275;30;20060;-76
2022/07/04 14:05:05;;;;;;;25.67;10.55;;;21.30;59.10;;;;;;4777810;30;20151;-75
2022/07/04 14:07:33;;;;;;;7.50;3.05;;;21.30;59.80;;;;;;4777673;30;20440;-75
2022/07/04 14:09:59;;;;;;;3.58;0.52;;;21.40;60.60;;;;;;4777438;30;20048;-77
2022/07/04 14:12:25;;;;;;;4.03;1.00;;;21.40;58.20;;;;;;4777820;30;20060;-77
2022/07/04 14:14:50;;;;;;;2.88;0.70;;;21.40;58.20;;;;;;4761531;30;20055;-77
2022/07/04 14:17:16;;;;;;;2.95;0.30;;;21.30;57.70;;;;;;4776925;30;20067;-76
2022/07/04 14:19:42;;;;;;;3.17;0.47;;;21.30;57.40;;;;;;4762303;30;20056;-79
2022/07/04 14:22:08;;;;;;;6.20;0.95;;;21.30;57.50;;;;;;4761305;30;20043;-76
2022/07/04 14:24:33;;;;;;;4.50;0.73;;;21.30;58.00;;;;;;4777669;30;20441;-75
2022/07/04 14:26:59;;;;;;;6.53;0.70;;;21.30;58.60;;;;;;4777711;30;20515;-75
2022/07/04 14:29:25;;;;;;;11.10;1.25;;;21.30;58.90;;;;;;4777907;30;20055;-75
2022/07/04 14:31:51;;;;;;;8.15;0.60;;;21.30;59.40;;;;;;4777400;30;20051;-78
2022/07/04 14:34:17;;;;;;;12.13;1.00;;;21.40;59.90;;;;;;4761207;30;20068;-76
2022/07/04 14:36:43;;;;;;;6.22;0.98;;;21.40;60.00;;;;;;4777743;30;20055;-77
2022/07/04 14:39:09;;;;;;;8.00;0.75;;;21.40;60.20;;;;;;4777294;30;20055;-75
2022/07/04 14:41:35;;;;;;;8.02;0.98;;;21.50;60.40;;;;;;4777150;30;20112;-76
2022/07/04 14:44:01;;;;;;;7.82;0.88;;;21.50;60.70;;;;;;4777608;30;20354;-77
2022/07/04 14:46:27;;;;;;;7.38;0.90;;;21.50;60.60;;;;;;4777216;30;20048;-76
2022/07/04 14:48:53;;;;;;;7.47;0.70;;;21.50;61.00;;;;;;4777242;30;20083;-76
2022/07/04 14:51:19;;;;;;;8.25;0.60;;;21.50;61.30;;;;;;4777063;30;20457;-76
2022/07/04 14:53:45;;;;;;;10.98;1.02;;;21.60;61.50;;;;;;4777148;30;20083;-77
2022/07/04 14:56:11;;;;;;;4.63;1.02;;;21.60;61.50;;;;;;4762497;30;20051;-74
2022/07/04 14:58:36;;;;;;;4.22;0.73;;;21.60;60.80;;;;;;4777848;30;20452;-75
2022/07/04 15:01:02;;;;;;;6.95;0.70;;;21.60;60.40;;;;;;4761436;30;20376;-76
2022/07/04 15:03:28;;;;;;;5.85;0.73;;;21.60;59.70;;;;;;4777408;30;20086;-75
2022/07/04 15:05:54;;;;;;;6.80;1.10;;;21.60;59.50;;;;;;4777609;30;20087;-76
2022/07/04 15:08:19;;;;;;;2.72;0.43;;;21.60;59.60;;;;;;4777307;30;20067;-76
2022/07/04 15:10:45;;;;;;;5.40;0.60;;;21.60;59.80;;;;;;4777726;30;20060;-78
2022/07/04 15:13:12;;;;;;;10.38;1.25;;;21.60;60.40;;;;;;4761390;30;20130;-77
2022/07/04 15:15:37;;;;;;;9.02;0.52;;;21.60;59.90;;;;;;4774756;30;20059;-77
2022/07/04 15:18:03;;;;;;;8.38;0.82;;;21.60;59.80;;;;;;4774787;30;20048;-77
2022/07/04 15:26:01;;;;;;;7.03;0.73;;;21.60;59.50;;;;;;4758699;30;20048;-75
2022/07/04 15:28:27;;;;;;;4.80;0.60;;;21.70;59.70;;;;;;4758178;30;20055;-77
2022/07/04 15:30:53;;;;;;;6.40;0.60;;;21.60;59.70;;;;;;4774402;30;20062;-76
2022/07/04 15:33:19;;;;;;;5.55;0.43;;;21.60;59.80;;;;;;4773703;30;20144;-76
2022/07/04 15:35:45;;;;;;;6.70;0.55;;;21.60;60.00;;;;;;4788252;30;20060;-77
2022/07/04 15:38:11;;;;;;;7.72;0.60;;;21.70;59.90;;;;;;4788407;30;20051;-77
2022/07/04 15:40:40;;;;;;;1.67;0.30;;;21.70;59.40;;;;;;4758582;30;20354;-78
2022/07/04 15:43:05;;;;;;;2.47;0.45;;;21.70;58.00;;;;;;4774058;30;20246;-77
2022/07/04 15:45:31;;;;;;;3.45;0.20;;;21.70;57.90;;;;;;4758518;30;20126;-78
2022/07/04 15:47:57;;;;;;;3.33;0.47;;;21.70;57.50;;;;;;4773970;30;20052;-76
2022/07/04 15:50:23;;;;;;;5.00;0.50;;;21.70;57.10;;;;;;4774393;30;20047;-76
2022/07/04 15:52:49;;;;;;;3.08;0.50;;;21.70;57.20;;;;;;4773589;30;20132;-77
2022/07/04 15:55:15;;;;;;;2.40;0.22;;;21.60;56.80;;;;;;4774163;30;20063;-76
2022/07/04 15:57:41;;;;;;;1.67;0.30;;;21.70;57.00;;;;;;4774027;30;20091;-76
2022/07/04 16:00:07;;;;;;;3.35;0.60;;;21.70;57.20;;;;;;4758404;30;20055;-76
2022/07/04 16:02:33;;;;;;;2.85;0.45;;;21.70;57.20;;;;;;4772995;30;20079;-76
2022/07/04 16:04:59;;;;;;;3.00;0.40;;;21.70;57.30;;;;;;4773830;30;20368;-75
2022/07/04 16:07:25;;;;;;;2.97;0.52;;;21.70;57.00;;;;;;4774077;30;20051;-76
2022/07/04 16:09:51;;;;;;;1.40;0.22;;;21.70;56.70;;;;;;4773987;30;20135;-78
2022/07/04 16:12:16;;;;;;;0.40;0.20;;;21.70;56.80;;;;;;4757778;30;20055;-78
2022/07/04 16:14:42;;;;;;;3.13;0.43;;;21.70;56.80;;;;;;4773568;30;20059;-76
2022/07/04 16:17:08;;;;;;;1.65;0.30;;;21.70;56.90;;;;;;4773782;30;20445;-75
2022/07/04 16:19:34;;;;;;;0.77;0.40;;;21.70;56.90;;;;;;4758001;30;20047;-76
2022/07/04 16:22:00;;;;;;;2.10;0.40;;;21.70;57.10;;;;;;4773090;30;20055;-73
2022/07/04 16:24:25;;;;;;;6.30;0.50;;;21.70;57.40;;;;;;4773298;30;20063;-72
2022/07/04 16:26:51;;;;;;;4.10;0.60;;;21.70;57.80;;;;;;4772792;30;20056;-84
2022/07/04 16:29:17;;;;;;;2.33;0.65;;;21.70;58.30;;;;;;4756450;30;20380;-78
2022/07/04 16:31:43;;;;;;;7.15;0.70;;;21.80;58.50;;;;;;4773177;30;20048;-76
2022/07/04 16:34:09;;;;;;;6.45;1.00;;;21.70;58.40;;;;;;4772716;30;20055;-78
2022/07/04 16:36:35;;;;;;;8.07;0.80;;;21.70;59.00;;;;;;4773314;30;20067;-75
2022/07/04 16:39:01;;;;;;;5.47;0.60;;;21.80;59.00;;;;;;4772509;30;20133;-76
2022/07/04 16:41:27;;;;;;;6.07;0.75;;;21.80;58.60;;;;;;4772847;30;20051;-76
2022/07/04 16:43:52;;;;;;;2.65;0.40;;;21.80;58.70;;;;;;4773039;30;20056;-76
2022/07/04 16:46:18;;;;;;;6.30;1.02;;;21.80;58.70;;;;;;4779547;30;20047;-77
2022/07/04 16:48:44;;;;;;;3.70;0.65;;;21.80;58.40;;;;;;4774468;30;20087;-78